Time;durP1;ratioP1;P1;durP2;ratioP2;P2;SDS_P1;SDS_P2;PMS_P1;PMS_P2;Temp;Humidity;BMP_temperature;BMP_pressure;BME280_temperature;BME280_humidity;BME280_pressure;Samples;Min_cycle;Max_cycle;Signal;HPM_P1;HPM_P2
2023/02/05 00:02:11;;;;;;;1.65;1.42;;;17.70;38.10;;;;;;6156123;23;20528;-79
2023/02/05 00:04:37;;;;;;;2.08;1.70;;;17.70;38.00;;;;;;6130024;23;20584;-78
2023/02/05 00:07:02;;;;;;;2.08;1.73;;;17.70;38.10;;;;;;6156187;23;20491;-79
2023/02/05 00:09:28;;;;;;;1.70;1.60;;;17.70;38.10;;;;;;6105756;23;20147;-79
2023/02/05 00:11:54;;;;;;;1.65;1.50;;;17.70;38.20;;;;;;6130305;23;20714;-79
2023/02/05 00:14:20;;;;;;;2.28;1.60;;;17.70;38.10;;;;;;6156019;23;20139;-78
2023/02/05 00:16:46;;;;;;;2.05;1.65;;;17.70;38.10;;;;;;6156341;23;20135;-79
2023/02/05 00:19:12;;;;;;;1.92;1.73;;;17.70;38.10;;;;;;6156184;23;20170;-79
2023/02/05 00:21:37;;;;;;;2.22;1.85;;;17.70;38.20;;;;;;6156089;23;20142;-79
2023/02/05 00:24:03;;;;;;;1.98;1.70;;;17.70;38.30;;;;;;6156348;23;20136;-79
2023/02/05 00:26:29;;;;;;;1.65;1.55;;;17.70;38.20;;;;;;6129844;23;20155;-79
2023/02/05 00:28:55;;;;;;;1.70;1.60;;;17.70;38.20;;;;;;6156095;23;20135;-79
2023/02/05 00:31:21;;;;;;;1.63;1.52;;;17.70;38.30;;;;;;6129997;23;20136;-79
2023/02/05 00:33:47;;;;;;;1.88;1.63;;;17.60;38.30;;;;;;6156107;23;20136;-79
2023/02/05 00:36:13;;;;;;;2.10;1.80;;;17.70;38.30;;;;;;6156257;23;20143;-79
2023/02/05 00:38:39;;;;;;;2.75;1.73;;;17.70;38.30;;;;;;6155296;23;20503;-79
2023/02/05 00:41:05;;;;;;;1.90;1.65;;;17.70;38.30;;;;;;6156018;23;20144;-79
2023/02/05 00:43:31;;;;;;;2.33;2.03;;;17.70;38.30;;;;;;6155954;23;20474;-79
2023/02/05 00:45:56;;;;;;;2.25;1.92;;;17.70;38.30;;;;;;6155863;23;20462;-79
2023/02/05 00:48:22;;;;;;;1.75;1.63;;;17.70;38.30;;;;;;6105271;23;20147;-79
2023/02/05 00:50:49;;;;;;;2.10;1.80;;;17.60;38.20;;;;;;6156161;23;20218;-79
2023/02/05 00:53:14;;;;;;;2.05;1.85;;;17.70;38.30;;;;;;6105894;23;20146;-79
2023/02/05 00:55:40;;;;;;;1.80;1.63;;;17.60;38.30;;;;;;6155838;23;20524;-79
2023/02/05 00:58:05;;;;;;;2.50;1.83;;;17.70;38.30;;;;;;6155764;23;20531;-79
2023/02/05 01:00:32;;;;;;;1.70;1.50;;;17.60;38.30;;;;;;6129725;23;20178;-79
2023/02/05 01:02:58;;;;;;;1.83;1.60;;;17.60;38.30;;;;;;6130326;23;20180;-79
2023/02/05 01:05:24;;;;;;;1.85;1.55;;;17.60;38.30;;;;;;6105458;23;20140;-79
2023/02/05 01:07:50;;;;;;;2.05;1.80;;;17.60;38.40;;;;;;6156124;23;20463;-79
2023/02/05 01:10:15;;;;;;;2.10;1.80;;;17.60;38.40;;;;;;6155986;23;20143;-79
2023/02/05 01:12:41;;;;;;;1.80;1.60;;;17.60;38.40;;;;;;6130239;23;20469;-78
2023/02/05 01:15:07;;;;;;;1.90;1.70;;;17.60;38.30;;;;;;6155691;23;20267;-78
2023/02/05 01:17:33;;;;;;;2.17;1.83;;;17.60;38.40;;;;;;6105422;23;20136;-78
2023/02/05 01:19:59;;;;;;;2.38;1.83;;;17.60;38.30;;;;;;6129666;23;20174;-79
2023/02/05 01:22:24;;;;;;;2.17;1.85;;;17.60;38.30;;;;;;6155509;23;20148;-79
2023/02/05 01:24:50;;;;;;;1.75;1.50;;;17.60;38.40;;;;;;6129673;23;20159;-79
2023/02/05 01:27:16;;;;;;;2.22;1.70;;;17.60;38.40;;;;;;6155740;23;20132;-78
2023/02/05 01:29:41;;;;;;;1.75;1.65;;;17.60;38.40;;;;;;6155530;23;20215;-79
2023/02/05 01:32:07;;;;;;;2.53;1.83;;;17.60;38.50;;;;;;6129536;23;20166;-79
2023/02/05 01:34:33;;;;;;;2.63;1.80;;;17.60;38.50;;;;;;6155509;23;20602;-78
2023/02/05 01:36:58;;;;;;;2.03;1.80;;;17.60;38.40;;;;;;6155341;23;20210;-79
2023/02/05 01:39:24;;;;;;;1.80;1.70;;;17.60;38.40;;;;;;6105081;23;20627;-79
2023/02/05 01:41:49;;;;;;;2.00;1.80;;;17.60;38.40;;;;;;6155556;23;20143;-79
2023/02/05 01:44:17;;;;;;;1.88;1.77;;;17.60;38.40;;;;;;6155631;23;20162;-79
2023/02/05 01:46:44;;;;;;;1.80;1.52;;;17.60;38.40;;;;;;6129812;23;20215;-79
2023/02/05 01:49:18;;;;;;;1.90;1.70;;;17.60;38.50;;;;;;6155422;23;20136;-79
2023/02/05 01:51:44;;;;;;;1.73;1.60;;;17.60;38.40;;;;;;6157547;23;20215;-80
2023/02/05 01:54:10;;;;;;;2.10;1.60;;;17.60;38.40;;;;;;6157420;23;20140;-79
2023/02/05 01:56:41;;;;;;;2.13;1.88;;;17.60;38.50;;;;;;6157384;23;20219;-79
2023/02/05 01:59:11;;;;;;;2.17;1.77;;;17.60;38.50;;;;;;6131842;23;20530;-79
2023/02/05 02:01:37;;;;;;;1.75;1.60;;;17.50;38.40;;;;;;6131803;23;20138;-79
2023/02/05 02:04:03;;;;;;;1.80;1.70;;;17.60;38.50;;;;;;6106732;23;20530;-79
2023/02/05 02:06:32;;;;;;;1.70;1.60;;;17.50;38.40;;;;;;6157482;23;20471;-79
2023/02/05 02:08:57;;;;;;;1.85;1.50;;;17.50;38.40;;;;;;6131602;23;20210;-79
2023/02/05 02:11:23;;;;;;;2.05;1.85;;;17.50;38.50;;;;;;6157573;23;20543;-79
2023/02/05 02:13:49;;;;;;;1.88;1.60;;;17.50;38.50;;;;;;6131741;23;20156;-79
2023/02/05 02:16:15;;;;;;;2.38;1.83;;;17.50;38.50;;;;;;6131208;23;20154;-79
2023/02/05 02:18:40;;;;;;;2.00;1.80;;;17.50;38.50;;;;;;6157281;23;20135;-79
2023/02/05 02:21:33;;;;;;;2.60;1.85;;;17.50;38.60;;;;;;6106569;23;20179;-79
2023/02/05 02:24:21;;;;;;;2.20;1.80;;;17.50;38.60;;;;;;6112052;23;20144;-79
2023/02/05 02:27:13;;;;;;;2.00;1.70;;;17.50;38.60;;;;;;6131255;23;20179;-79
2023/02/05 02:29:54;;;;;;;1.95;1.80;;;17.50;38.50;;;;;;6157113;23;20140;-79
2023/02/05 02:32:28;;;;;;;2.30;1.80;;;17.50;38.60;;;;;;6131666;23;20139;-79
2023/02/05 02:35:13;;;;;;;2.22;1.73;;;17.50;38.60;;;;;;6107928;23;20136;-79
2023/02/05 02:37:46;;;;;;;2.13;1.80;;;17.50;38.70;;;;;;6156813;23;20222;-79
2023/02/05 02:40:35;;;;;;;1.92;1.70;;;17.50;38.70;;;;;;6157077;23;20193;-79
2023/02/05 02:43:06;;;;;;;1.70;1.60;;;17.50;38.70;;;;;;6135546;23;20140;-79
2023/02/05 02:45:33;;;;;;;2.25;2.05;;;17.40;38.60;;;;;;6083045;23;20152;-79
2023/02/05 02:47:59;;;;;;;2.10;1.80;;;17.40;38.70;;;;;;6106736;23;20157;-79
2023/02/05 02:50:31;;;;;;;1.98;1.60;;;17.40;38.70;;;;;;6156959;23;20135;-79
2023/02/05 02:53:00;;;;;;;1.48;1.35;;;17.40;38.60;;;;;;6131604;23;20142;-79
2023/02/05 02:55:26;;;;;;;1.90;1.70;;;17.50;38.70;;;;;;6107015;23;20139;-79
2023/02/05 02:57:51;;;;;;;2.30;1.80;;;17.40;38.60;;;;;;6157253;23;20527;-79
2023/02/05 03:00:19;;;;;;;2.50;2.00;;;17.40;38.60;;;;;;6156792;23;20502;-79
2023/02/05 03:02:45;;;;;;;2.08;1.60;;;17.40;38.60;;;;;;6156643;23;20136;-80
2023/02/05 03:05:13;;;;;;;1.55;1.45;;;17.40;38.70;;;;;;6156900;23;20142;-79
2023/02/05 03:07:42;;;;;;;2.22;1.60;;;17.40;38.70;;;;;;6157096;23;20135;-79
2023/02/05 03:10:18;;;;;;;2.05;1.70;;;17.40;38.70;;;;;;6130939;23;20139;-79
2023/02/05 03:12:44;;;;;;;1.88;1.75;;;17.40;38.70;;;;;;6132182;23;20163;-79
2023/02/05 03:15:10;;;;;;;1.90;1.80;;;17.40;38.80;;;;;;6131450;23;20151;-79
2023/02/05 03:17:35;;;;;;;2.35;1.75;;;17.40;38.80;;;;;;6130760;23;20191;-79
2023/02/05 03:20:08;;;;;;;2.13;1.88;;;17.40;38.80;;;;;;6156664;23;20587;-79
2023/02/05 03:22:34;;;;;;;1.98;1.73;;;17.40;38.80;;;;;;6156892;23;20146;-79
2023/02/05 03:25:01;;;;;;;1.98;1.63;;;17.40;38.80;;;;;;6156976;23;20214;-79
2023/02/05 03:27:26;;;;;;;2.10;1.77;;;17.40;38.80;;;;;;6156645;23;20139;-79
2023/02/05 03:29:52;;;;;;;1.95;1.60;;;17.40;38.80;;;;;;6130562;23;20145;-79
2023/02/05 03:32:35;;;;;;;2.33;1.85;;;17.40;38.80;;;;;;6156426;23;20218;-79
2023/02/05 03:35:24;;;;;;;1.90;1.67;;;17.30;38.70;;;;;;6130878;23;20143;-79
2023/02/05 03:38:13;;;;;;;2.47;1.88;;;17.40;38.80;;;;;;6156253;23;20211;-79
2023/02/05 03:41:03;;;;;;;1.95;1.75;;;17.40;38.80;;;;;;6156420;23;20163;-79
2023/02/05 03:43:34;;;;;;;3.30;1.77;;;17.30;38.90;;;;;;6135822;23;20140;-79
2023/02/05 03:46:16;;;;;;;2.00;1.58;;;17.40;38.80;;;;;;6156338;23;20463;-79
2023/02/05 03:48:49;;;;;;;1.90;1.77;;;17.30;38.80;;;;;;6130253;23;20158;-79
2023/02/05 03:51:27;;;;;;;2.00;1.70;;;17.40;38.80;;;;;;6131532;23;20567;-79
2023/02/05 03:54:06;;;;;;;1.83;1.63;;;17.40;38.80;;;;;;6105659;23;20587;-79
2023/02/05 03:56:43;;;;;;;2.03;1.60;;;17.40;38.90;;;;;;6107829;23;20470;-79
2023/02/05 03:59:08;;;;;;;2.10;1.90;;;17.40;38.80;;;;;;6130557;23;20249;-79
2023/02/05 04:01:34;;;;;;;1.85;1.67;;;17.40;38.80;;;;;;6156163;23;20167;-79
2023/02/05 04:04:00;;;;;;;2.10;1.55;;;17.40;38.80;;;;;;6156074;23;20132;-79
2023/02/05 04:06:25;;;;;;;1.98;1.77;;;17.40;38.90;;;;;;6156536;23;20139;-79
2023/02/05 04:08:51;;;;;;;1.73;1.63;;;17.30;38.80;;;;;;6156059;23;20453;-79
2023/02/05 04:11:17;;;;;;;2.20;1.90;;;17.40;38.90;;;;;;6156079;23;20131;-79
2023/02/05 04:13:42;;;;;;;2.22;1.90;;;17.30;38.80;;;;;;6156105;23;20511;-79
2023/02/05 04:16:08;;;;;;;1.67;1.55;;;17.30;38.80;;;;;;6130129;23;20203;-79
2023/02/05 04:18:34;;;;;;;2.15;1.88;;;17.30;38.90;;;;;;6130530;23;20143;-79
2023/02/05 04:21:00;;;;;;;2.30;1.67;;;17.30;38.90;;;;;;6155983;23;20590;-78
2023/02/05 04:23:26;;;;;;;1.70;1.60;;;17.30;38.90;;;;;;6130171;23;20132;-79
2023/02/05 04:25:53;;;;;;;2.08;1.80;;;17.30;38.80;;;;;;6130318;23;20533;-79
2023/02/05 04:28:18;;;;;;;1.88;1.55;;;17.30;38.90;;;;;;6105944;23;20144;-79
2023/02/05 04:30:44;;;;;;;1.90;1.67;;;17.30;38.90;;;;;;6130438;23;20147;-78
2023/02/05 04:33:09;;;;;;;2.03;1.83;;;17.30;38.90;;;;;;6156176;23;20143;-79
2023/02/05 04:35:35;;;;;;;1.90;1.70;;;17.30;38.90;;;;;;6156258;23;20472;-79
2023/02/05 04:38:01;;;;;;;1.90;1.77;;;17.30;38.90;;;;;;6155761;23;20634;-79
2023/02/05 04:40:26;;;;;;;1.77;1.55;;;17.30;38.90;;;;;;6155832;23;20250;-79
2023/02/05 04:42:52;;;;;;;1.80;1.60;;;17.30;38.90;;;;;;6105411;23;20158;-79
2023/02/05 04:45:18;;;;;;;1.80;1.70;;;17.20;38.90;;;;;;6155896;23;20147;-79
2023/02/05 04:47:44;;;;;;;1.58;1.45;;;17.30;39.00;;;;;;6156107;23;20468;-79
2023/02/05 04:50:09;;;;;;;1.70;1.60;;;17.30;38.90;;;;;;6156230;23;20619;-79
2023/02/05 04:52:35;;;;;;;2.60;1.85;;;17.30;38.90;;;;;;6155745;23;20162;-79
2023/02/05 04:55:01;;;;;;;2.70;1.73;;;17.30;39.00;;;;;;6156130;23;20147;-79
2023/02/05 04:57:26;;;;;;;2.03;1.83;;;17.30;38.90;;;;;;6155868;23;20136;-79
2023/02/05 04:59:52;;;;;;;2.15;1.60;;;17.30;38.90;;;;;;6155605;23;20606;-80
2023/02/05 05:02:17;;;;;;;1.70;1.60;;;17.30;38.90;;;;;;6155955;23;20563;-79
2023/02/05 05:04:43;;;;;;;2.15;1.90;;;17.30;38.90;;;;;;6155810;23;20631;-79
2023/02/05 05:07:09;;;;;;;1.77;1.60;;;17.30;38.90;;;;;;6155762;23;20139;-80
2023/02/05 05:09:36;;;;;;;2.40;1.77;;;17.30;38.90;;;;;;6105440;23;20579;-79
2023/02/05 05:12:01;;;;;;;1.75;1.60;;;17.30;39.00;;;;;;6155606;23;20144;-79
2023/02/05 05:14:27;;;;;;;1.90;1.63;;;17.20;39.00;;;;;;6155742;23;20446;-79
2023/02/05 05:16:53;;;;;;;1.90;1.60;;;17.30;39.10;;;;;;6155927;23;20150;-79
2023/02/05 05:19:18;;;;;;;1.92;1.55;;;17.30;39.10;;;;;;6155749;23;20246;-78
2023/02/05 05:21:44;;;;;;;1.90;1.73;;;17.30;39.00;;;;;;6129721;23;20496;-79
2023/02/05 05:24:10;;;;;;;1.92;1.60;;;17.30;38.90;;;;;;6155626;23;20512;-79
2023/02/05 05:26:36;;;;;;;2.00;1.80;;;17.30;39.00;;;;;;6157609;23;20571;-79
2023/02/05 05:29:02;;;;;;;1.80;1.60;;;17.30;39.00;;;;;;6158047;23;20142;-79
2023/02/05 05:31:28;;;;;;;2.13;1.90;;;17.30;38.90;;;;;;6157641;23;20139;-79
2023/02/05 05:33:53;;;;;;;1.70;1.60;;;17.20;38.90;;;;;;6157579;23;20138;-79
2023/02/05 05:36:19;;;;;;;1.90;1.70;;;17.30;39.00;;;;;;6157718;23;20132;-79
2023/02/05 05:38:45;;;;;;;1.70;1.60;;;17.30;39.00;;;;;;6131615;23;20681;-79
2023/02/05 05:44:08;;;;;;;1.80;1.65;;;17.20;39.00;;;;;;6135878;23;20142;-79
2023/02/05 05:46:34;;;;;;;1.90;1.70;;;17.30;39.00;;;;;;6107014;23;20156;-79
2023/02/05 05:49:01;;;;;;;1.90;1.50;;;17.30;38.90;;;;;;6131498;23;20193;-79
2023/02/05 05:51:27;;;;;;;2.55;1.90;;;17.30;39.00;;;;;;6107613;23;20496;-79
2023/02/05 05:53:53;;;;;;;1.88;1.70;;;17.30;39.00;;;;;;6131600;23;20191;-79
2023/02/05 05:56:19;;;;;;;1.90;1.70;;;17.20;39.00;;;;;;6157713;23;20140;-79
2023/02/05 05:58:44;;;;;;;2.08;1.70;;;17.20;39.00;;;;;;6131677;23;20139;-80
2023/02/05 06:01:10;;;;;;;2.38;1.63;;;17.20;39.00;;;;;;6157299;23;20167;-79
2023/02/05 06:03:36;;;;;;;2.03;1.80;;;17.20;39.00;;;;;;6131519;23;20142;-80
2023/02/05 06:06:03;;;;;;;1.67;1.52;;;17.20;39.00;;;;;;6157357;23;20560;-79
2023/02/05 06:08:29;;;;;;;2.15;1.95;;;17.20;39.00;;;;;;6131173;23;20136;-79
2023/02/05 06:10:54;;;;;;;1.95;1.58;;;17.20;39.10;;;;;;6131326;23;20174;-79
2023/02/05 06:13:20;;;;;;;1.55;1.33;;;17.20;39.10;;;;;;6131159;23;20178;-79
2023/02/05 06:15:47;;;;;;;1.60;1.50;;;17.20;39.10;;;;;;6082993;23;20182;-79
2023/02/05 06:18:14;;;;;;;2.05;1.85;;;17.20;39.10;;;;;;6157563;23;20135;-79
2023/02/05 06:20:39;;;;;;;1.92;1.63;;;17.20;39.10;;;;;;6106924;23;20167;-79
2023/02/05 06:23:05;;;;;;;1.65;1.55;;;17.20;39.10;;;;;;6106890;23;20575;-79
2023/02/05 06:25:31;;;;;;;1.70;1.60;;;17.20;39.10;;;;;;6106728;23;20195;-79
2023/02/05 06:27:56;;;;;;;1.83;1.58;;;17.20;39.80;;;;;;6157489;23;20631;-79
2023/02/05 06:30:22;;;;;;;2.00;1.77;;;17.20;39.00;;;;;;6157189;23;20206;-79
2023/02/05 06:32:48;;;;;;;1.70;1.60;;;17.20;39.10;;;;;;6106647;23;20486;-79
2023/02/05 06:35:14;;;;;;;1.58;1.40;;;17.20;39.10;;;;;;6157079;23;20563;-79
2023/02/05 06:37:39;;;;;;;1.70;1.55;;;17.20;39.10;;;;;;6130325;23;20194;-79
2023/02/05 06:40:05;;;;;;;1.85;1.60;;;17.20;39.00;;;;;;6130952;23;20677;-79
2023/02/05 06:42:31;;;;;;;1.70;1.50;;;17.30;39.10;;;;;;6157070;23;20131;-79
2023/02/05 06:44:56;;;;;;;1.42;1.33;;;17.20;39.10;;;;;;6106481;23;20151;-79
2023/02/05 06:47:22;;;;;;;1.88;1.55;;;17.20;39.10;;;;;;6157049;23;20471;-80
2023/02/05 06:49:48;;;;;;;1.58;1.42;;;17.20;39.10;;;;;;6157278;23;20451;-79
2023/02/05 06:52:13;;;;;;;1.70;1.50;;;17.20;39.20;;;;;;6157149;23;20567;-79
2023/02/05 06:54:40;;;;;;;1.85;1.50;;;17.20;39.00;;;;;;6157350;23;20214;-79
2023/02/05 06:57:06;;;;;;;1.60;1.50;;;17.20;39.00;;;;;;6157175;23;20135;-79
2023/02/05 06:59:31;;;;;;;2.03;1.67;;;17.20;39.00;;;;;;6130852;23;20167;-79
2023/02/05 07:01:57;;;;;;;1.70;1.60;;;17.20;39.00;;;;;;6156909;23;20592;-79
2023/02/05 07:04:22;;;;;;;1.75;1.63;;;17.20;39.00;;;;;;6106326;23;20594;-79
2023/02/05 07:06:48;;;;;;;2.13;1.80;;;17.20;39.00;;;;;;6130913;23;20467;-79
2023/02/05 07:09:14;;;;;;;1.77;1.63;;;17.20;39.00;;;;;;6156727;23;20136;-79
2023/02/05 07:11:39;;;;;;;1.67;1.58;;;17.20;39.00;;;;;;6156771;23;20542;-79
2023/02/05 07:14:05;;;;;;;1.75;1.60;;;17.20;39.10;;;;;;6130776;23;20227;-80
2023/02/05 07:16:31;;;;;;;1.55;1.42;;;17.20;39.10;;;;;;6130728;23;20448;-80
2023/02/05 07:18:57;;;;;;;1.83;1.70;;;17.20;39.10;;;;;;6156487;23;20629;-80
2023/02/05 07:21:22;;;;;;;2.00;1.80;;;17.20;39.00;;;;;;6130839;23;20135;-79
2023/02/05 07:23:48;;;;;;;2.00;1.60;;;17.20;39.70;;;;;;6130640;23;20142;-79
2023/02/05 07:26:15;;;;;;;1.58;1.30;;;17.20;39.20;;;;;;6131021;23;20586;-79
2023/02/05 07:28:41;;;;;;;1.35;1.25;;;17.20;39.00;;;;;;6130863;23;20139;-79
2023/02/05 07:31:08;;;;;;;1.92;1.70;;;17.20;39.10;;;;;;6106274;23;20523;-80
2023/02/05 07:33:35;;;;;;;2.15;1.75;;;17.20;39.00;;;;;;6131181;23;20139;-79
2023/02/05 07:36:03;;;;;;;1.83;1.42;;;17.20;39.10;;;;;;6156388;23;20575;-79
2023/02/05 07:38:29;;;;;;;2.13;1.80;;;17.20;38.90;;;;;;6130350;23;20519;-79
2023/02/05 07:40:55;;;;;;;1.90;1.65;;;17.20;39.10;;;;;;6130429;23;20595;-79
2023/02/05 07:43:20;;;;;;;2.10;1.77;;;17.20;39.10;;;;;;6156323;23;20136;-79
2023/02/05 07:45:46;;;;;;;2.10;1.63;;;17.20;39.00;;;;;;6130524;23;20599;-79
2023/02/05 07:48:12;;;;;;;1.52;1.40;;;17.20;39.10;;;;;;6105450;23;20538;-79
2023/02/05 07:50:42;;;;;;;1.50;1.40;;;17.20;39.00;;;;;;6104912;23;20140;-79
2023/02/05 07:53:08;;;;;;;1.58;1.48;;;17.20;39.10;;;;;;6155977;23;20143;-79
2023/02/05 07:55:34;;;;;;;2.45;1.40;;;17.20;39.00;;;;;;6155574;23;20218;-80
2023/02/05 07:57:59;;;;;;;5.13;1.95;;;17.20;39.10;;;;;;6155508;23;20136;-79
2023/02/05 08:00:25;;;;;;;5.57;1.70;;;17.20;39.20;;;;;;6155389;23;20535;-80
2023/02/05 08:02:51;;;;;;;17.80;2.67;;;17.20;39.20;;;;;;6155767;23;20135;-80
2023/02/05 08:05:16;;;;;;;12.88;2.55;;;17.30;39.20;;;;;;6129686;23;20439;-79
2023/02/05 08:07:42;;;;;;;16.73;2.20;;;17.30;39.20;;;;;;6155929;23;20246;-79
2023/02/05 08:10:08;;;;;;;9.30;1.83;;;17.30;39.20;;;;;;6156910;23;20198;-80
2023/02/05 08:12:34;;;;;;;10.63;2.20;;;17.30;39.20;;;;;;6132745;23;20142;-79
2023/02/05 08:15:00;;;;;;;9.90;1.98;;;17.40;38.90;;;;;;6159147;23;20136;-80
2023/02/05 08:17:25;;;;;;;5.75;1.92;;;17.50;38.70;;;;;;6132132;23;20144;-79
2023/02/05 08:19:51;;;;;;;12.43;2.00;;;17.60;38.60;;;;;;6158779;23;20531;-80
2023/02/05 08:22:17;;;;;;;8.90;1.90;;;17.70;38.50;;;;;;6157993;23;20135;-79
2023/02/05 08:24:42;;;;;;;4.80;1.60;;;17.70;38.30;;;;;;6158925;23;20190;-80
2023/02/05 08:27:10;;;;;;;11.48;2.05;;;17.70;38.20;;;;;;6107686;23;20155;-78
2023/02/05 08:29:36;;;;;;;7.55;1.90;;;17.80;38.10;;;;;;6132491;23;20575;-79
2023/02/05 08:32:02;;;;;;;6.85;1.52;;;17.80;37.80;;;;;;6134269;23;20193;-79
2023/02/05 08:34:28;;;;;;;13.38;1.70;;;17.90;37.60;;;;;;6159981;23;20167;-80
2023/02/05 08:36:56;;;;;;;11.80;1.70;;;18.00;37.40;;;;;;6132115;23;20190;-79
2023/02/05 08:39:21;;;;;;;15.25;2.10;;;18.00;37.50;;;;;;6157592;23;20507;-79
2023/02/05 08:41:47;;;;;;;13.18;2.08;;;18.00;37.40;;;;;;6107695;23;20174;-79
2023/02/05 08:44:12;;;;;;;7.45;1.75;;;18.10;37.50;;;;;;6083921;23;20151;-80
2023/02/05 08:46:38;;;;;;;18.95;2.53;;;18.00;37.50;;;;;;6158367;23;20187;-79
2023/02/05 08:49:04;;;;;;;19.35;2.38;;;18.10;37.50;;;;;;6159833;23;20144;-80
2023/02/05 08:51:32;;;;;;;16.95;2.00;;;18.00;37.70;;;;;;6161061;23;20215;-80
2023/02/05 08:53:58;;;;;;;23.15;2.72;;;18.10;37.60;;;;;;6109805;23;20158;-80
2023/02/05 08:56:24;;;;;;;24.02;2.58;;;18.10;37.50;;;;;;6157376;23;20132;-78
2023/02/05 08:58:49;;;;;;;20.33;2.42;;;18.10;37.60;;;;;;6105669;23;20210;-80
2023/02/05 09:01:16;;;;;;;27.20;2.88;;;18.10;37.70;;;;;;6155297;23;20171;-80
2023/02/05 09:03:41;;;;;;;29.30;3.25;;;18.10;37.80;;;;;;6079285;23;20158;-79
2023/02/05 09:06:09;;;;;;;32.00;3.38;;;18.10;38.30;;;;;;6129309;23;20147;-80
2023/02/05 09:08:42;;;;;;;32.08;2.88;;;18.00;38.50;;;;;;6105440;23;20154;-79
2023/02/05 09:11:08;;;;;;;17.65;2.45;;;18.00;38.50;;;;;;6084565;23;20151;-80
2023/02/05 09:13:33;;;;;;;26.50;2.60;;;18.10;39.40;;;;;;6158176;23;20210;-79
2023/02/05 09:15:59;;;;;;;22.13;2.22;;;18.10;38.50;;;;;;6156149;23;20150;-81
2023/02/05 09:18:25;;;;;;;17.15;2.30;;;18.20;38.30;;;;;;6157575;23;20136;-80
2023/02/05 09:20:52;;;;;;;20.23;2.38;;;18.20;38.20;;;;;;6083884;23;20187;-80
2023/02/05 09:23:18;;;;;;;14.32;2.20;;;18.20;38.00;;;;;;6130140;23;20159;-80
2023/02/05 09:25:44;;;;;;;13.32;2.10;;;18.30;38.40;;;;;;6129558;23;20218;-79
2023/02/05 09:28:11;;;;;;;11.55;2.20;;;18.30;38.10;;;;;;6157243;23;20159;-80
2023/02/05 09:30:38;;;;;;;16.23;1.90;;;18.30;37.90;;;;;;6129407;23;20159;-79
2023/02/05 09:33:04;;;;;;;17.63;1.90;;;18.40;38.00;;;;;;6105152;23;20136;-80
2023/02/05 09:35:32;;;;;;;12.60;1.83;;;18.40;38.00;;;;;;6104699;23;20142;-79
2023/02/05 09:37:58;;;;;;;13.82;2.00;;;18.40;38.20;;;;;;6104730;23;20274;-80
2023/02/05 09:40:26;;;;;;;8.85;1.75;;;18.40;38.00;;;;;;6105761;23;20210;-80
2023/02/05 09:43:02;;;;;;;12.95;1.75;;;18.40;38.00;;;;;;6129181;23;20136;-79
2023/02/05 09:45:37;;;;;;;12.57;2.17;;;18.40;38.00;;;;;;6104956;23;20150;-80
2023/02/05 09:48:30;;;;;;;13.55;1.80;;;18.40;38.10;;;;;;6105036;23;20150;-82
2023/02/05 09:50:56;;;;;;;16.58;1.77;;;18.40;38.20;;;;;;6109851;23;20571;-80
2023/02/05 09:53:21;;;;;;;7.82;1.88;;;18.40;38.30;;;;;;6129537;23;20151;-81
2023/02/05 09:55:47;;;;;;;17.35;2.15;;;18.40;38.20;;;;;;6130126;23;20152;-80
2023/02/05 09:58:16;;;;;;;12.98;1.80;;;18.40;38.40;;;;;;6104226;23;20222;-81
2023/02/05 10:00:47;;;;;;;9.77;1.90;;;18.40;38.30;;;;;;6104431;23;20264;-81
2023/02/05 10:03:31;;;;;;;7.47;1.85;;;18.40;38.50;;;;;;6104673;23;20135;-81
2023/02/05 10:06:10;;;;;;;6.25;1.60;;;18.30;38.40;;;;;;6155047;23;20139;-80
2023/02/05 10:08:53;;;;;;;9.57;1.70;;;18.20;38.50;;;;;;6154969;23;20131;-79
2023/02/05 10:11:40;;;;;;;8.95;1.60;;;18.20;38.50;;;;;;6131502;23;20507;-79
2023/02/05 10:14:25;;;;;;;12.25;1.65;;;18.20;38.20;;;;;;6157678;23;20155;-80
2023/02/05 10:17:11;;;;;;;11.50;1.55;;;18.30;38.30;;;;;;6132101;23;20210;-79
2023/02/05 10:19:48;;;;;;;7.22;1.75;;;18.30;38.20;;;;;;6133566;23;20223;-79
2023/02/05 10:22:40;;;;;;;3.30;1.48;;;18.20;38.70;;;;;;6156592;23;20155;-79
2023/02/05 10:25:28;;;;;;;5.43;1.40;;;18.20;38.70;;;;;;6156546;23;20563;-79
2023/02/05 10:28:33;;;;;;;5.00;1.40;;;18.20;39.10;;;;;;6132587;23;20556;-79
2023/02/05 10:31:09;;;;;;;14.52;1.63;;;18.20;39.10;;;;;;6135734;23;20147;-79
2023/02/05 10:33:48;;;;;;;14.48;1.73;;;18.10;39.10;;;;;;6157511;23;20580;-79
2023/02/05 10:36:14;;;;;;;3.92;1.52;;;18.10;39.00;;;;;;6156858;23;20135;-79
2023/02/05 10:38:43;;;;;;;4.13;1.48;;;18.20;38.80;;;;;;6107178;23;20482;-80
2023/02/05 10:41:16;;;;;;;10.13;1.35;;;18.20;38.70;;;;;;6157100;23;20499;-79
2023/02/05 10:43:52;;;;;;;3.80;1.05;;;18.30;38.70;;;;;;6158147;23;20476;-79
2023/02/05 10:46:18;;;;;;;6.80;1.50;;;18.30;38.90;;;;;;6157134;23;20499;-78
2023/02/05 10:48:50;;;;;;;12.57;1.55;;;18.30;38.90;;;;;;6131779;23;20131;-79
2023/02/05 10:51:19;;;;;;;8.43;0.95;;;18.20;39.00;;;;;;6131271;23;20146;-79
2023/02/05 10:53:45;;;;;;;3.45;1.40;;;18.30;38.80;;;;;;6130091;23;20163;-79
2023/02/05 10:56:16;;;;;;;4.38;1.10;;;18.30;39.00;;;;;;6155092;23;20191;-79
2023/02/05 10:58:52;;;;;;;9.63;1.75;;;18.30;38.90;;;;;;6106580;23;20590;-79
2023/02/05 11:01:20;;;;;;;7.13;1.88;;;18.30;38.80;;;;;;6109312;23;20186;-79
2023/02/05 11:04:03;;;;;;;5.18;1.25;;;18.30;38.90;;;;;;6157789;23;20558;-79
2023/02/05 11:06:31;;;;;;;7.63;1.30;;;18.30;38.90;;;;;;6157517;23;20214;-79
2023/02/05 11:08:57;;;;;;;10.38;1.42;;;18.30;39.00;;;;;;6131894;23;20571;-79
2023/02/05 11:11:27;;;;;;;5.72;0.90;;;18.30;38.90;;;;;;6157721;23;20567;-79
2023/02/05 11:13:57;;;;;;;10.85;1.50;;;18.30;38.90;;;;;;6131882;23;20563;-80
2023/02/05 11:16:22;;;;;;;5.30;1.30;;;18.30;38.80;;;;;;6106741;23;20163;-79
2023/02/05 11:18:57;;;;;;;4.28;1.00;;;18.30;39.00;;;;;;6107333;23;20662;-79
2023/02/05 11:21:23;;;;;;;7.50;1.25;;;18.30;39.00;;;;;;6106774;23;20170;-79
2023/02/05 11:23:55;;;;;;;4.85;1.08;;;18.30;39.20;;;;;;6130231;23;20163;-80
2023/02/05 11:26:22;;;;;;;4.28;1.38;;;18.30;39.10;;;;;;6130262;23;20559;-80
2023/02/05 11:28:48;;;;;;;2.42;1.08;;;18.30;39.10;;;;;;6130685;23;20132;-79
2023/02/05 11:31:26;;;;;;;3.60;1.23;;;18.30;39.20;;;;;;6156238;23;20140;-79
2023/02/05 11:34:10;;;;;;;2.22;0.85;;;18.30;39.20;;;;;;6130306;23;20154;-80
2023/02/05 11:36:37;;;;;;;2.78;0.80;;;18.30;39.10;;;;;;6130335;23;20419;-80
2023/02/05 11:39:03;;;;;;;3.50;1.23;;;18.30;39.00;;;;;;6106027;23;20157;-80
2023/02/05 11:41:50;;;;;;;4.30;1.00;;;18.30;38.80;;;;;;6130463;23;20135;-80
2023/02/05 11:44:27;;;;;;;12.55;1.65;;;18.30;39.10;;;;;;6156709;23;20174;-80
2023/02/05 11:46:55;;;;;;;20.02;2.88;;;18.40;38.90;;;;;;6130508;23;20138;-80
2023/02/05 11:49:24;;;;;;;13.60;2.00;;;18.30;38.80;;;;;;6155849;23;20134;-79
2023/02/05 11:51:51;;;;;;;16.83;2.50;;;18.30;39.00;;;;;;6156416;23;20136;-79
2023/02/05 11:54:20;;;;;;;16.63;2.33;;;18.30;39.00;;;;;;6130426;23;20132;-80
2023/02/05 11:57:22;;;;;;;15.48;2.20;;;18.30;39.40;;;;;;6106504;23;20517;-80
2023/02/05 12:00:18;;;;;;;12.88;1.92;;;18.30;39.10;;;;;;6114102;23;20163;-80
2023/02/05 12:02:44;;;;;;;8.77;1.58;;;18.30;39.10;;;;;;6130084;23;20136;-80
2023/02/05 12:05:23;;;;;;;14.20;1.77;;;18.30;39.40;;;;;;6105781;23;20167;-79
2023/02/05 12:07:55;;;;;;;9.80;1.67;;;18.30;39.40;;;;;;6106091;23;20666;-80
2023/02/05 12:10:45;;;;;;;7.50;1.65;;;18.30;39.70;;;;;;6156303;23;20579;-80
2023/02/05 12:13:26;;;;;;;7.00;1.63;;;18.30;39.40;;;;;;6130197;23;20151;-80
2023/02/05 12:15:58;;;;;;;9.73;1.30;;;18.30;39.60;;;;;;6129980;23;20324;-80
2023/02/05 12:18:33;;;;;;;7.45;1.38;;;18.30;39.60;;;;;;6156002;23;20138;-80
2023/02/05 12:21:22;;;;;;;6.10;1.55;;;18.30;39.30;;;;;;6129852;23;20182;-80
2023/02/05 12:24:06;;;;;;;8.35;1.38;;;18.30;39.50;;;;;;6086201;23;20151;-80
2023/02/05 12:26:36;;;;;;;7.28;1.30;;;18.40;39.20;;;;;;6107525;23;20575;-80
2023/02/05 12:29:31;;;;;;;5.47;1.15;;;18.40;39.20;;;;;;6130836;23;20158;-80
2023/02/05 12:32:10;;;;;;;9.85;1.50;;;18.40;39.20;;;;;;6155593;23;20151;-80
2023/02/05 12:35:01;;;;;;;5.25;1.40;;;18.40;39.40;;;;;;6129768;23;20231;-80
2023/02/05 12:37:39;;;;;;;10.77;1.63;;;18.40;39.10;;;;;;6131391;23;20503;-81
2023/02/05 12:40:28;;;;;;;8.55;1.30;;;18.40;39.40;;;;;;6156633;23;20678;-80
2023/02/05 12:43:05;;;;;;;6.25;1.13;;;18.40;39.30;;;;;;6156042;23;20139;-79
2023/02/05 12:45:52;;;;;;;4.32;1.20;;;18.40;39.40;;;;;;6155993;23;20135;-79
2023/02/05 12:48:39;;;;;;;5.32;1.90;;;18.30;39.20;;;;;;6155916;23;20128;-81
2023/02/05 12:51:27;;;;;;;6.38;1.10;;;18.40;39.20;;;;;;6156287;23;20175;-79
2023/02/05 12:54:16;;;;;;;7.65;1.17;;;18.40;39.20;;;;;;6157732;23;20143;-80
2023/02/05 12:56:53;;;;;;;7.32;1.30;;;18.40;39.20;;;;;;6158234;23;20143;-79
2023/02/05 12:59:37;;;;;;;5.68;1.42;;;18.40;39.20;;;;;;6158265;23;20210;-80
2023/02/05 13:02:10;;;;;;;10.13;1.52;;;18.40;39.20;;;;;;6133719;23;20143;-79